Terminal Aerodrome Forecast
Issued by NWS Newport/Morehead City, NC

Home | Current Version | Previous Version | Text Only | Print | Product List | Glossary On
Versions: 1 2 3 4 5 6 7 8 9 10 11 12 13 14 15 16 17 18 19 20 21
000
FTUS42 KMHX 041743 CCA
TAFEWN
TAF COR
KEWN 041743Z 0418/0518 22015G25KT P6SM SCT030 BKN050
     FM042100 20012KT P6SM SCT050
     FM050500 20011KT 3SM BR BKN005
     FM051300 28008KT P6SM -RA BKN010=

USA.gov is the U.S. government's official web portal to all federal, state and local government web resources and services.